createdAt,value
2018-11-06T00:01:22.915Z,26.97
2018-11-06T00:03:56.457Z,27.10
2018-11-06T00:06:24.601Z,28.65
2018-11-06T00:08:52.811Z,28.40
2018-11-06T00:11:20.999Z,26.40
2018-11-06T00:13:49.170Z,29.00
2018-11-06T00:16:17.369Z,29.52
2018-11-06T00:18:45.583Z,30.35
2018-11-06T00:21:13.747Z,30.85
2018-11-06T00:23:42.026Z,31.10
2018-11-06T00:26:10.217Z,30.52
2018-11-06T00:28:38.395Z,26.00
2018-11-06T00:31:06.518Z,31.62
2018-11-06T00:33:34.682Z,29.37
2018-11-06T00:36:02.858Z,25.08
2018-11-06T00:38:31.059Z,24.72
2018-11-06T00:40:59.246Z,23.18
2018-11-06T00:43:27.442Z,22.98
2018-11-06T00:45:55.610Z,22.77
2018-11-06T00:48:23.794Z,22.20
2018-11-06T00:50:51.977Z,23.02
2018-11-06T00:53:20.165Z,22.17
2018-11-06T00:55:48.365Z,20.12
2018-11-06T00:58:16.542Z,21.15
2018-11-06T01:00:44.735Z,20.52
2018-11-06T01:03:12.906Z,19.37
2018-11-06T01:05:41.101Z,20.23
2018-11-06T01:08:09.286Z,20.77
2018-11-06T01:10:37.475Z,21.17
2018-11-06T01:13:05.653Z,20.62
2018-11-06T01:15:33.869Z,20.30
2018-11-06T01:18:02.026Z,20.40
2018-11-06T01:20:30.230Z,20.90
2018-11-06T01:22:58.401Z,19.92
2018-11-06T01:25:26.606Z,20.08
2018-11-06T01:27:54.782Z,20.88
2018-11-06T01:30:22.986Z,20.95
2018-11-06T01:32:51.150Z,22.37
2018-11-06T01:35:19.354Z,19.25
2018-11-06T01:37:47.542Z,20.15
2018-11-06T01:40:16.949Z,20.45
2018-11-06T01:42:45.650Z,20.00
2018-11-06T01:45:14.978Z,18.98
2018-11-06T01:47:43.158Z,17.77
2018-11-06T01:50:14.630Z,18.27
2018-11-06T01:52:44.242Z,18.48
2018-11-06T01:55:12.626Z,18.37
2018-11-06T01:57:41.029Z,18.23
2018-11-06T02:00:11.772Z,16.32
2018-11-06T02:02:40.166Z,17.02
2018-11-06T02:05:09.665Z,16.42
2018-11-06T02:07:37.872Z,16.93
2018-11-06T02:10:06.821Z,17.98
2018-11-06T02:12:34.950Z,16.57
2018-11-06T02:15:03.130Z,16.05
2018-11-06T02:17:31.321Z,14.83
2018-11-06T02:19:59.497Z,15.55
2018-11-06T02:22:27.730Z,16.52
2018-11-06T02:24:55.878Z,16.82
2018-11-06T02:27:24.081Z,17.55
2018-11-06T02:29:52.250Z,17.92
2018-11-06T02:32:20.632Z,18.48
2018-11-06T02:34:48.754Z,19.40
2018-11-06T02:37:16.933Z,18.50
2018-11-06T02:39:45.102Z,19.77
2018-11-06T02:42:13.294Z,18.35
2018-11-06T02:44:41.475Z,20.35
2018-11-06T02:47:09.974Z,19.32
2018-11-06T02:49:38.461Z,18.75
2018-11-06T02:52:06.654Z,18.00
2018-11-06T02:54:34.946Z,18.82
2018-11-06T02:57:03.130Z,18.65
2018-11-06T02:59:31.322Z,17.42
2018-11-06T03:01:59.509Z,17.82
2018-11-06T03:04:27.706Z,17.75
2018-11-06T03:06:55.893Z,18.95
2018-11-06T03:09:24.056Z,18.25
2018-11-06T03:11:52.234Z,17.98
2018-11-06T03:14:20.425Z,17.92
2018-11-06T03:16:48.641Z,18.85
2018-11-06T03:19:16.805Z,18.87
2018-11-06T03:21:44.985Z,19.02
2018-11-06T03:24:13.174Z,18.20
2018-11-06T03:26:41.378Z,18.77
2018-11-06T03:29:09.538Z,20.80
2018-11-06T03:31:37.718Z,19.10
2018-11-06T03:34:06.413Z,19.35
2018-11-06T03:36:34.632Z,19.45
2018-11-06T03:39:03.169Z,20.55
2018-11-06T03:41:31.286Z,22.22
2018-11-06T03:43:59.504Z,22.27
2018-11-06T03:46:27.657Z,22.15
2018-11-06T03:48:55.869Z,21.95
2018-11-06T03:51:24.035Z,22.77
2018-11-06T03:53:52.249Z,25.72
2018-11-06T03:56:20.418Z,23.87
2018-11-06T03:58:48.610Z,24.98
2018-11-06T04:01:16.795Z,25.27
2018-11-06T04:03:44.977Z,26.62
2018-11-06T04:06:13.163Z,25.32
2018-11-06T04:08:41.350Z,25.88
2018-11-06T04:11:09.653Z,26.48
2018-11-06T04:13:37.862Z,27.15
2018-11-06T04:16:06.018Z,26.23
2018-11-06T04:18:34.181Z,26.40
2018-11-06T04:21:02.265Z,25.45
2018-11-06T04:23:30.373Z,25.90
2018-11-06T04:25:58.563Z,26.75
2018-11-06T04:28:26.966Z,28.25
2018-11-06T04:30:55.142Z,27.60
2018-11-06T04:33:23.310Z,28.85
2018-11-06T04:35:51.394Z,27.87
2018-11-06T04:38:19.477Z,28.50
2018-11-06T04:40:47.582Z,28.95
2018-11-06T04:43:15.742Z,28.23
2018-11-06T04:45:43.833Z,28.62
2018-11-06T04:48:12.222Z,25.90
2018-11-06T04:50:40.325Z,28.62
2018-11-06T04:53:08.506Z,27.45
2018-11-06T04:55:36.685Z,26.57
2018-11-06T04:58:04.861Z,27.40
2018-11-06T05:00:32.968Z,27.42
2018-11-06T05:03:01.134Z,28.80
2018-11-06T05:05:29.237Z,29.52
2018-11-06T05:07:57.419Z,28.92
2018-11-06T05:10:25.510Z,26.77
2018-11-06T05:12:53.694Z,27.30
2018-11-06T05:15:21.880Z,26.93
2018-11-06T05:17:50.054Z,25.35
2018-11-06T05:20:18.494Z,26.55
2018-11-06T05:22:47.086Z,24.87
2018-11-06T05:25:15.614Z,24.20
2018-11-06T05:27:43.717Z,24.50
2018-11-06T05:30:12.490Z,25.23
2018-11-06T05:32:42.000Z,26.33
2018-11-06T05:35:11.018Z,26.68
2018-11-06T05:37:39.386Z,25.85
2018-11-06T05:40:19.015Z,26.75
2018-11-06T05:42:47.193Z,26.55
2018-11-06T05:45:15.286Z,26.90
2018-11-06T05:47:43.465Z,29.00
2018-11-06T05:50:11.658Z,27.87
2018-11-06T05:52:39.735Z,26.95
2018-11-06T05:55:07.913Z,28.20
2018-11-06T05:57:36.927Z,25.90
2018-11-06T06:00:05.394Z,26.07
2018-11-06T06:02:33.471Z,24.85
2018-11-06T06:05:01.602Z,23.65
2018-11-06T06:07:29.790Z,23.42
2018-11-06T06:09:57.954Z,23.27
2018-11-06T06:12:26.077Z,23.47
2018-11-06T06:14:54.232Z,23.65
2018-11-06T06:17:22.438Z,24.57
2018-11-06T06:19:50.515Z,24.95
2018-11-06T06:22:18.730Z,26.07
2018-11-06T06:24:46.873Z,24.37
2018-11-06T06:27:14.973Z,25.80
2018-11-06T06:29:43.217Z,26.48
2018-11-06T06:32:11.338Z,26.97
2018-11-06T06:34:39.578Z,27.30
2018-11-06T06:37:07.962Z,27.87
2018-11-06T06:39:36.547Z,27.98
2018-11-06T06:42:05.289Z,27.35
2018-11-06T06:44:33.402Z,28.00
2018-11-06T06:47:01.599Z,27.37
2018-11-06T06:49:29.762Z,29.75
2018-11-06T06:51:57.931Z,29.10
2018-11-06T06:54:26.238Z,31.40
2018-11-06T06:56:54.259Z,32.20
2018-11-06T06:59:22.425Z,32.73
2018-11-06T07:01:50.598Z,32.30
2018-11-06T07:04:19.446Z,31.10
2018-11-06T07:06:48.133Z,30.88
2018-11-06T07:09:16.301Z,30.48
2018-11-06T07:11:44.922Z,30.08
2018-11-06T07:14:13.074Z,30.08
2018-11-06T07:16:41.258Z,31.50
2018-11-06T07:19:09.354Z,30.97
2018-11-06T07:21:37.535Z,31.12
2018-11-06T07:24:05.957Z,30.12
2018-11-06T07:26:34.422Z,29.90
2018-11-06T07:29:02.623Z,28.83
2018-11-06T07:31:30.798Z,28.75
2018-11-06T07:33:58.981Z,27.32
2018-11-06T07:36:27.060Z,25.62
2018-11-06T07:38:55.146Z,25.65
2018-11-06T07:41:23.250Z,25.50
2018-11-06T07:43:51.427Z,27.17
2018-11-06T07:46:19.603Z,25.70
2018-11-06T07:48:47.698Z,24.47
2018-11-06T07:51:15.879Z,22.90
2018-11-06T07:53:43.987Z,24.02
2018-11-06T07:56:12.333Z,21.68
2018-11-06T07:58:40.450Z,23.20
2018-11-06T08:01:08.631Z,22.85
2018-11-06T08:03:36.815Z,22.80
2018-11-06T08:06:05.023Z,22.60
2018-11-06T08:08:33.194Z,22.30
2018-11-06T08:11:01.373Z,21.90
2018-11-06T08:13:29.574Z,22.67
2018-11-06T08:15:57.745Z,22.10
2018-11-06T08:18:25.844Z,21.02
2018-11-06T08:20:54.010Z,21.12
2018-11-06T08:23:22.115Z,21.90
2018-11-06T08:25:50.290Z,20.32
2018-11-06T08:28:18.382Z,22.25
2018-11-06T08:30:46.712Z,22.22
2018-11-06T08:33:14.754Z,22.82
2018-11-06T08:35:42.957Z,21.40
2018-11-06T08:38:11.130Z,21.60
2018-11-06T08:40:39.322Z,21.23
2018-11-06T08:43:07.493Z,21.57
2018-11-06T08:45:35.593Z,21.62
2018-11-06T08:48:03.799Z,20.55
2018-11-06T08:50:31.862Z,20.97
2018-11-06T08:53:00.056Z,21.12
2018-11-06T08:55:28.226Z,20.90
2018-11-06T08:57:56.305Z,20.00
2018-11-06T09:00:24.394Z,20.65
2018-11-06T09:02:52.490Z,20.25
2018-11-06T09:05:20.669Z,19.77
2018-11-06T09:07:48.851Z,20.82
2018-11-06T09:10:17.262Z,20.97
2018-11-06T09:12:45.429Z,21.25
2018-11-06T09:15:14.658Z,21.87
2018-11-06T09:17:42.837Z,20.12
2018-11-06T09:20:12.393Z,19.98
2018-11-06T09:22:40.670Z,19.90
2018-11-06T09:25:10.578Z,20.70
2018-11-06T09:27:39.097Z,20.90
2018-11-06T09:30:09.435Z,20.50
2018-11-06T09:32:37.718Z,21.48
2018-11-06T09:35:06.379Z,21.07
2018-11-06T09:37:34.474Z,20.85
2018-11-06T09:40:02.663Z,21.30
2018-11-06T09:42:30.850Z,20.27
2018-11-06T09:44:59.111Z,14.30
2018-11-06T09:47:27.217Z,13.68
2018-11-06T09:49:55.398Z,13.43
2018-11-06T09:52:23.508Z,17.20
2018-11-06T09:54:51.681Z,17.60
2018-11-06T09:57:19.878Z,18.27
2018-11-06T09:59:47.945Z,18.50
2018-11-06T10:02:16.029Z,18.25
2018-11-06T10:04:44.109Z,19.07
2018-11-06T10:07:12.568Z,19.30
2018-11-06T10:09:40.514Z,20.12
2018-11-06T10:12:08.690Z,19.35
2018-11-06T10:14:36.850Z,19.52
2018-11-06T10:17:05.210Z,19.92
2018-11-06T10:19:33.349Z,19.25
2018-11-06T10:22:01.530Z,19.40
2018-11-06T10:24:29.761Z,19.35
2018-11-06T10:26:57.841Z,19.67
2018-11-06T10:29:25.985Z,19.52
2018-11-06T10:31:54.182Z,19.02
2018-11-06T10:34:22.379Z,20.97
2018-11-06T10:36:50.558Z,20.02
2018-11-06T10:39:18.728Z,20.32
2018-11-06T10:41:46.830Z,25.08
2018-11-06T10:44:15.022Z,23.38
2018-11-06T10:46:43.201Z,19.42
2018-11-06T10:49:11.387Z,18.87
2018-11-06T10:51:39.585Z,18.27
2018-11-06T10:54:07.754Z,18.48
2018-11-06T10:56:35.954Z,17.80
2018-11-06T10:59:04.113Z,17.15
2018-11-06T11:01:37.609Z,17.57
2018-11-06T11:04:11.312Z,17.95
2018-11-06T11:06:39.442Z,17.75
2018-11-06T11:09:08.678Z,17.27
2018-11-06T11:11:36.842Z,17.62
2018-11-06T11:14:05.162Z,16.85
2018-11-06T11:16:33.338Z,17.15
2018-11-06T11:19:01.634Z,16.37
2018-11-06T11:21:30.028Z,16.50
2018-11-06T11:23:58.230Z,16.87
2018-11-06T11:26:26.374Z,17.00
2018-11-06T11:28:54.563Z,16.73
2018-11-06T11:31:22.875Z,17.75
2018-11-06T11:33:50.962Z,16.07
2018-11-06T11:36:19.010Z,17.25
2018-11-06T11:38:47.109Z,17.15
2018-11-06T11:41:15.298Z,16.75
2018-11-06T11:43:43.480Z,17.25
2018-11-06T11:46:11.658Z,17.07
2018-11-06T11:48:40.091Z,13.93
2018-11-06T11:51:08.246Z,10.40
2018-11-06T11:53:36.430Z,13.08
2018-11-06T11:56:04.685Z,13.22
2018-11-06T11:58:32.810Z,14.73
2018-11-06T12:01:01.010Z,14.40
2018-11-06T12:03:29.195Z,15.15
2018-11-06T12:05:57.493Z,14.70
2018-11-06T12:08:25.649Z,14.15
2018-11-06T12:10:53.827Z,14.40
2018-11-06T12:13:21.937Z,14.87
2018-11-06T12:15:50.110Z,15.63
2018-11-06T12:18:18.298Z,14.35
2018-11-06T12:20:46.482Z,14.23
2018-11-06T12:23:14.665Z,14.58
2018-11-06T12:25:43.117Z,14.05
2018-11-06T12:28:11.056Z,15.43
2018-11-06T12:30:39.225Z,15.00
2018-11-06T12:33:07.313Z,14.47
2018-11-06T12:35:35.514Z,15.10
2018-11-06T12:38:03.690Z,13.65
2018-11-06T12:40:31.984Z,14.10
2018-11-06T12:43:00.128Z,14.07
2018-11-06T12:45:28.288Z,12.37
2018-11-06T12:47:56.453Z,14.03
2018-11-06T12:50:24.677Z,12.70
2018-11-06T12:52:52.821Z,13.32
2018-11-06T12:55:21.002Z,13.22
2018-11-06T12:57:49.188Z,12.75
2018-11-06T13:00:19.398Z,12.60
2018-11-06T13:02:47.477Z,13.83
2018-11-06T13:05:15.611Z,12.65
2018-11-06T13:07:44.529Z,13.03
2018-11-06T13:10:13.440Z,13.45
2018-11-06T13:12:42.234Z,12.82
2018-11-06T13:15:10.400Z,13.08
2018-11-06T13:17:38.592Z,12.93
2018-11-06T13:20:09.562Z,13.75
2018-11-06T13:22:38.254Z,12.65
2018-11-06T13:25:06.985Z,13.32
2018-11-06T13:27:35.341Z,13.05
2018-11-06T13:30:03.518Z,13.48
2018-11-06T13:32:31.727Z,12.80
2018-11-06T13:34:59.881Z,12.73
2018-11-06T13:37:28.059Z,13.53
2018-11-06T13:39:56.177Z,11.95
2018-11-06T13:42:24.365Z,12.98
2018-11-06T13:44:52.828Z,12.88
2018-11-06T13:47:20.621Z,12.37
2018-11-06T13:49:48.822Z,12.93
2018-11-06T13:52:16.927Z,12.28
2018-11-06T13:54:45.078Z,12.43
2018-11-06T13:57:13.251Z,11.95
2018-11-06T13:59:41.478Z,12.15
2018-11-06T14:02:09.610Z,12.63
2018-11-06T14:04:37.721Z,12.20
2018-11-06T14:07:05.905Z,12.15
2018-11-06T14:09:34.087Z,12.55
2018-11-06T14:12:02.266Z,12.18
2018-11-06T14:14:30.368Z,11.80
2018-11-06T14:16:58.537Z,11.80
2018-11-06T14:19:26.766Z,12.50
2018-11-06T14:21:54.839Z,11.78
2018-11-06T14:24:22.922Z,13.55
2018-11-06T14:26:51.122Z,12.65
2018-11-06T14:29:19.192Z,13.10
2018-11-06T14:31:47.593Z,11.88
2018-11-06T14:34:15.661Z,12.95
2018-11-06T14:36:43.841Z,12.55
2018-11-06T14:39:12.018Z,12.80
2018-11-06T14:41:40.214Z,13.03
2018-11-06T14:44:08.290Z,13.08
2018-11-06T14:46:36.479Z,12.65
2018-11-06T14:49:05.076Z,13.22
2018-11-06T14:51:33.174Z,13.32
2018-11-06T14:54:01.340Z,13.45
2018-11-06T14:56:29.430Z,12.93
2018-11-06T14:58:57.627Z,13.22
2018-11-06T15:01:25.814Z,13.80
2018-11-06T15:03:53.995Z,13.30
2018-11-06T15:06:22.202Z,13.00
2018-11-06T15:08:50.358Z,13.05
2018-11-06T15:11:18.450Z,11.95
2018-11-06T15:13:46.643Z,12.65
2018-11-06T15:16:14.817Z,12.40
2018-11-06T15:18:43.029Z,12.75
2018-11-06T15:21:11.195Z,12.05
2018-11-06T15:23:39.383Z,12.35
2018-11-06T15:26:07.571Z,12.55
2018-11-06T15:28:35.746Z,13.45
2018-11-06T15:31:03.864Z,12.90
2018-11-06T15:33:32.030Z,13.20
2018-11-06T15:36:00.214Z,13.43
2018-11-06T15:38:28.398Z,12.88
2018-11-06T15:40:56.624Z,12.55
2018-11-06T15:43:24.701Z,13.25
2018-11-06T15:45:52.864Z,12.60
2018-11-06T15:48:21.067Z,13.18
2018-11-06T15:50:49.246Z,13.03
2018-11-06T15:53:17.424Z,13.03
2018-11-06T15:55:45.620Z,13.18
2018-11-06T15:58:13.690Z,13.95
2018-11-06T16:00:42.954Z,12.90
2018-11-06T16:03:11.082Z,12.78
2018-11-06T16:05:39.179Z,12.05
2018-11-06T16:08:07.419Z,12.95
2018-11-06T16:10:35.554Z,12.30
2018-11-06T16:13:03.630Z,13.35
2018-11-06T16:15:32.022Z,12.90
2018-11-06T16:18:00.019Z,13.25
2018-11-06T16:20:28.301Z,13.45
2018-11-06T16:22:56.379Z,11.45
2018-11-06T16:25:24.561Z,11.18
2018-11-06T16:27:52.661Z,11.80
2018-11-06T16:30:21.996Z,11.63
2018-11-06T16:32:50.343Z,10.18
2018-11-06T16:35:19.910Z,10.72
2018-11-06T16:37:48.406Z,11.25
2018-11-06T16:40:16.898Z,11.83
2018-11-06T16:42:46.735Z,12.55
2018-11-06T16:45:19.356Z,12.58
2018-11-06T16:47:48.435Z,11.73
2018-11-06T16:50:17.326Z,11.12
2018-11-06T16:52:45.583Z,11.43
2018-11-06T16:55:14.206Z,11.20
2018-11-06T16:57:43.430Z,11.75
2018-11-06T17:00:13.741Z,11.45
2018-11-06T17:02:42.258Z,11.90
2018-11-06T17:05:11.572Z,11.90
2018-11-06T17:07:39.750Z,11.68
2018-11-06T17:10:09.793Z,12.00
2018-11-06T17:12:37.978Z,12.30
2018-11-06T17:15:08.458Z,13.40
2018-11-06T17:17:36.634Z,12.47
2018-11-06T17:20:06.266Z,13.72
2018-11-06T17:22:34.374Z,14.18
2018-11-06T17:25:02.578Z,13.22
2018-11-06T17:27:30.853Z,10.55
2018-11-06T17:29:58.926Z,13.98
2018-11-06T17:32:27.188Z,13.93
2018-11-06T17:34:55.314Z,14.95
2018-11-06T17:37:23.490Z,16.48
2018-11-06T17:39:51.573Z,15.95
2018-11-06T17:42:19.757Z,15.90
2018-11-06T17:44:47.854Z,16.93
2018-11-06T17:47:16.062Z,18.52
2018-11-06T17:49:44.226Z,17.30
2018-11-06T17:52:12.609Z,17.48
2018-11-06T17:54:40.807Z,17.30
2018-11-06T17:57:08.978Z,18.05
2018-11-06T17:59:37.090Z,20.65
2018-11-06T18:02:05.429Z,20.55
2018-11-06T18:04:33.705Z,22.37
2018-11-06T18:07:01.730Z,23.10
2018-11-06T18:09:29.826Z,25.20
2018-11-06T18:11:58.047Z,24.00
2018-11-06T18:14:26.190Z,24.50
2018-11-06T18:16:54.374Z,23.75
2018-11-06T18:19:22.462Z,24.98
2018-11-06T18:21:51.578Z,23.77
2018-11-06T18:24:19.769Z,23.73
2018-11-06T18:26:47.981Z,26.60
2018-11-06T18:29:16.141Z,29.23
2018-11-06T18:31:44.397Z,31.75
2018-11-06T18:34:12.626Z,30.05
2018-11-06T18:36:40.826Z,33.95
2018-11-06T18:39:10.637Z,34.58
2018-11-06T18:41:38.722Z,35.45
2018-11-06T18:44:07.371Z,35.63
2018-11-06T18:46:35.486Z,37.20
2018-11-06T18:49:03.730Z,36.03
2018-11-06T18:51:31.861Z,35.40
2018-11-06T18:54:00.058Z,38.90
2018-11-06T18:56:28.238Z,37.13
2018-11-06T18:58:56.438Z,38.13
2018-11-06T19:01:24.746Z,38.23
2018-11-06T19:03:52.908Z,37.95
2018-11-06T19:06:21.113Z,37.80
2018-11-06T19:08:49.283Z,38.95
2018-11-06T19:11:17.507Z,38.55
2018-11-06T19:13:45.666Z,38.92
2018-11-06T19:16:13.834Z,39.03
2018-11-06T19:18:42.037Z,37.85
2018-11-06T19:21:10.206Z,39.18
2018-11-06T19:23:38.441Z,40.63
2018-11-06T19:26:06.577Z,38.92
2018-11-06T19:28:34.681Z,39.18
2018-11-06T19:31:02.841Z,38.02
2018-11-06T19:33:30.950Z,39.48
2018-11-06T19:35:59.138Z,37.70
2018-11-06T19:38:27.303Z,38.42
2018-11-06T19:40:55.406Z,34.73
2018-11-06T19:43:23.582Z,37.15
2018-11-06T19:45:51.677Z,34.65
2018-11-06T19:48:19.855Z,35.33
2018-11-06T19:50:48.053Z,38.30
2018-11-06T19:53:16.314Z,36.05
2018-11-06T19:55:44.426Z,39.10
2018-11-06T19:58:12.707Z,36.85
2018-11-06T20:00:40.935Z,36.05
2018-11-06T20:03:09.080Z,37.80
2018-11-06T20:05:37.324Z,36.63
2018-11-06T20:08:05.738Z,36.28
2018-11-06T20:10:33.879Z,37.10
2018-11-06T20:13:02.026Z,37.17
2018-11-06T20:15:30.254Z,36.33
2018-11-06T20:17:58.507Z,36.08
2018-11-06T20:20:27.146Z,33.95
2018-11-06T20:22:55.533Z,34.20
2018-11-06T20:25:23.690Z,33.23
2018-11-06T20:27:51.869Z,33.28
2018-11-06T20:30:22.554Z,33.60
2018-11-06T20:32:50.704Z,33.25
2018-11-06T20:35:18.950Z,32.88
2018-11-06T20:37:47.113Z,33.02
2018-11-06T20:40:18.786Z,34.00
2018-11-06T20:42:47.467Z,35.68
2018-11-06T20:45:16.794Z,34.98
2018-11-06T20:47:45.282Z,34.98
2018-11-06T20:50:18.570Z,36.40
2018-11-06T20:52:46.993Z,37.45
2018-11-06T20:55:15.979Z,37.88
2018-11-06T20:57:44.041Z,38.90
2018-11-06T21:00:24.430Z,39.55
2018-11-06T21:02:53.862Z,40.88
2018-11-06T21:05:22.023Z,41.65
2018-11-06T21:07:50.251Z,41.68
2018-11-06T21:10:20.690Z,40.67
2018-11-06T21:12:48.889Z,38.78
2018-11-06T21:15:17.049Z,41.63
2018-11-06T21:17:45.378Z,41.60
2018-11-06T21:20:14.292Z,40.80
2018-11-06T21:22:42.530Z,41.92
2018-11-06T21:25:11.053Z,42.60
2018-11-06T21:27:39.927Z,43.83
2018-11-06T21:30:09.802Z,41.70
2018-11-06T21:32:38.457Z,43.63
2018-11-06T21:35:06.998Z,43.30
2018-11-06T21:37:35.114Z,42.05
2018-11-06T21:40:03.430Z,42.35
2018-11-06T21:42:31.590Z,42.00
2018-11-06T21:44:59.774Z,42.53
2018-11-06T21:47:27.962Z,42.23
2018-11-06T21:49:56.138Z,41.40
2018-11-06T21:52:24.250Z,41.77
2018-11-06T21:54:52.415Z,41.83
2018-11-06T21:57:20.607Z,42.70
2018-11-06T21:59:48.797Z,42.05
2018-11-06T22:02:16.881Z,41.95
2018-11-06T22:04:45.054Z,42.70
2018-11-06T22:07:13.175Z,42.58
2018-11-06T22:09:41.337Z,43.78
2018-11-06T22:12:09.583Z,43.35
2018-11-06T22:14:37.699Z,43.90
2018-11-06T22:17:05.895Z,41.13
2018-11-06T22:19:34.066Z,39.73
2018-11-06T22:22:02.190Z,40.92
2018-11-06T22:24:30.354Z,41.58
2018-11-06T22:26:58.549Z,40.65
2018-11-06T22:29:26.725Z,41.13
2018-11-06T22:31:54.929Z,40.65
2018-11-06T22:34:23.086Z,41.33
2018-11-06T22:36:51.234Z,38.83
2018-11-06T22:39:19.366Z,40.23
2018-11-06T22:41:47.482Z,39.08
2018-11-06T22:44:15.644Z,38.95
2018-11-06T22:46:43.819Z,38.70
2018-11-06T22:49:11.984Z,40.10
2018-11-06T22:51:40.090Z,39.08
2018-11-06T22:54:08.188Z,38.53
2018-11-06T22:56:36.354Z,38.80
2018-11-06T22:59:04.552Z,37.38
2018-11-06T23:01:32.645Z,37.80
2018-11-06T23:04:00.822Z,35.25
2018-11-06T23:06:29.083Z,35.10
2018-11-06T23:08:57.206Z,35.03
2018-11-06T23:11:25.386Z,35.70
2018-11-06T23:13:53.570Z,35.10
2018-11-06T23:16:21.758Z,35.20
2018-11-06T23:18:49.857Z,37.05
2018-11-06T23:21:17.961Z,35.78
2018-11-06T23:23:46.141Z,36.77
2018-11-06T23:26:14.299Z,35.10
2018-11-06T23:28:42.394Z,34.80
2018-11-06T23:31:10.570Z,33.65
2018-11-06T23:33:38.659Z,33.55
2018-11-06T23:36:06.837Z,33.95
2018-11-06T23:38:34.930Z,35.17
2018-11-06T23:41:03.133Z,33.08
2018-11-06T23:43:31.307Z,32.23
2018-11-06T23:45:59.489Z,32.75
2018-11-06T23:48:27.683Z,33.78
2018-11-06T23:50:55.861Z,32.58
2018-11-06T23:53:23.969Z,33.13
2018-11-06T23:55:52.162Z,31.35
2018-11-06T23:58:20.327Z,32.23
